createdAt,value
2019-04-20T00:00:37.148Z,5.80
2019-04-20T00:03:03.993Z,5.33
2019-04-20T00:05:33.006Z,7.40
2019-04-20T00:08:08.989Z,5.92
2019-04-20T00:10:44.213Z,6.33
2019-04-20T00:13:16.648Z,5.80
2019-04-20T00:15:34.570Z,4.87
2019-04-20T00:18:05.394Z,7.58
2019-04-20T00:20:35.906Z,7.83
2019-04-20T00:23:05.926Z,7.25
2019-04-20T00:28:24.088Z,7.00
2019-04-20T00:30:55.808Z,6.92
2019-04-20T00:33:28.366Z,6.42
2019-04-20T00:35:42.071Z,5.42
2019-04-20T00:38:12.313Z,7.25
2019-04-20T00:40:43.390Z,9.28
2019-04-20T00:43:13.035Z,6.83
2019-04-20T00:45:46.888Z,6.75
2019-04-20T00:48:22.434Z,4.58
2019-04-20T00:50:55.289Z,5.83
2019-04-20T00:53:22.668Z,5.70
2019-04-20T00:55:46.378Z,7.72
2019-04-20T00:58:23.638Z,6.22
2019-04-20T01:01:07.181Z,5.53
2019-04-20T01:03:33.927Z,4.85
2019-04-20T01:06:28.163Z,5.55
2019-04-20T01:08:40.280Z,6.08
2019-04-20T01:11:10.234Z,5.25
2019-04-20T01:13:46.907Z,6.35
2019-04-20T01:16:21.658Z,5.37
2019-04-20T01:18:40.295Z,4.97
2019-04-20T01:21:17.555Z,5.62
2019-04-20T01:23:48.905Z,4.72
2019-04-20T01:26:17.207Z,5.10
2019-04-20T01:28:56.615Z,6.33
2019-04-20T01:31:26.162Z,6.83
2019-04-20T01:33:56.605Z,6.37
2019-04-20T01:36:36.907Z,5.97
2019-04-20T01:39:00.202Z,6.20
2019-04-20T01:41:16.146Z,6.92
2019-04-20T01:43:46.105Z,5.65
2019-04-20T01:46:19.914Z,5.03
2019-04-20T01:48:46.308Z,5.05
2019-04-20T01:51:21.179Z,6.70
2019-04-20T01:54:12.112Z,5.67
2019-04-20T01:56:40.507Z,5.53
2019-04-20T01:59:21.205Z,6.47
2019-04-20T02:01:40.544Z,5.47
2019-04-20T02:04:17.166Z,4.78
2019-04-20T02:06:48.101Z,5.92
2019-04-20T02:09:19.098Z,6.40
2019-04-20T02:11:47.372Z,4.70
2019-04-20T02:14:24.244Z,4.50
2019-04-20T02:16:50.916Z,6.22
2019-04-20T02:19:32.888Z,5.25
2019-04-20T02:21:59.144Z,4.67
2019-04-20T02:24:17.832Z,5.40
2019-04-20T02:26:47.293Z,6.17
2019-04-20T02:29:42.629Z,5.47
2019-04-20T02:38:01.648Z,5.12
2019-04-20T02:40:19.711Z,6.08
2019-04-20T02:45:33.399Z,5.62
2019-04-20T02:47:47.769Z,5.95
2019-04-20T02:55:26.728Z,5.55
2019-04-20T02:57:53.000Z,4.75
2019-04-20T03:02:36.256Z,5.20
2019-04-20T03:05:04.059Z,6.67
2019-04-20T03:07:36.811Z,5.75
2019-04-20T03:10:15.622Z,4.92
2019-04-20T03:12:44.813Z,4.78
2019-04-20T03:15:09.581Z,6.90
2019-04-20T03:17:49.352Z,6.15
2019-04-20T03:20:13.808Z,5.47
2019-04-20T03:23:19.111Z,4.47
2019-04-20T03:25:25.522Z,4.65
2019-04-20T03:27:51.981Z,3.98
2019-04-20T03:31:15.609Z,3.90
2019-04-20T03:33:26.275Z,5.17
2019-04-20T03:35:43.122Z,5.80
2019-04-20T03:38:10.656Z,5.50
2019-04-20T03:40:37.282Z,4.62
2019-04-20T03:42:52.732Z,4.42
2019-04-20T03:45:23.616Z,5.70
2019-04-20T03:48:05.404Z,5.03
2019-04-20T03:50:45.429Z,6.08
2019-04-20T03:53:20.195Z,4.75
2019-04-20T03:55:47.482Z,4.50
2019-04-20T03:58:25.387Z,4.35
2019-04-20T04:01:14.814Z,4.78
2019-04-20T04:03:53.464Z,5.55
2019-04-20T04:06:12.338Z,5.12
2019-04-20T04:08:36.322Z,5.72
2019-04-20T04:11:22.070Z,5.53
2019-04-20T04:13:31.467Z,5.05
2019-04-20T04:16:04.903Z,4.17
2019-04-20T04:18:38.754Z,5.25
2019-04-20T04:21:08.378Z,5.20
2019-04-20T04:23:50.289Z,5.10
2019-04-20T04:26:22.273Z,4.80
2019-04-20T04:28:47.456Z,5.10
2019-04-20T04:31:28.918Z,8.63
2019-04-20T04:34:12.517Z,4.37
2019-04-20T04:36:22.244Z,4.30
2019-04-20T04:39:05.444Z,4.28
2019-04-20T04:41:27.056Z,4.47
2019-04-20T04:44:00.156Z,4.95
2019-04-20T04:46:12.573Z,4.40
2019-04-20T04:48:46.561Z,4.42
2019-04-20T04:51:19.666Z,6.08
2019-04-20T04:53:55.115Z,4.20
2019-04-20T04:56:18.920Z,4.50
2019-04-20T04:58:46.733Z,6.15
2019-04-20T05:01:24.860Z,3.65
2019-04-20T05:04:14.674Z,5.30
2019-04-20T05:06:33.008Z,4.62
2019-04-20T05:08:55.129Z,3.72
2019-04-20T05:11:21.734Z,4.25
2019-04-20T05:13:58.589Z,4.67
2019-04-20T05:16:40.983Z,4.15
2019-04-20T05:19:19.228Z,4.72
2019-04-20T05:21:57.419Z,4.78
2019-04-20T05:24:25.581Z,4.42
2019-04-20T05:27:07.130Z,4.37
2019-04-20T05:29:21.486Z,5.45
2019-04-20T05:31:51.843Z,5.65
2019-04-20T05:34:41.063Z,4.78
2019-04-20T05:37:17.636Z,3.90
2019-04-20T05:42:09.298Z,4.30
2019-04-20T05:44:46.188Z,4.35
2019-04-20T05:47:13.661Z,5.70
2019-04-20T05:49:41.571Z,4.55
2019-04-20T05:52:24.464Z,4.05
2019-04-20T05:54:48.979Z,5.17
2019-04-20T05:57:21.070Z,4.17
2019-04-20T05:59:51.169Z,4.80
2019-04-20T06:02:19.347Z,4.60
2019-04-20T06:04:59.991Z,4.00
2019-04-20T06:07:22.311Z,5.22
2019-04-20T06:09:54.559Z,4.00
2019-04-20T06:12:20.008Z,3.60
2019-04-20T06:14:51.779Z,4.20
2019-04-20T06:17:41.874Z,4.15
2019-04-20T06:20:06.179Z,4.72
2019-04-20T06:22:57.378Z,4.20
2019-04-20T06:25:33.351Z,5.42
2019-04-20T06:27:46.064Z,3.52
2019-04-20T06:30:11.168Z,4.47
2019-04-20T06:33:33.737Z,6.75
2019-04-20T06:36:10.277Z,4.90
2019-04-20T06:38:46.630Z,3.92
2019-04-20T06:41:05.286Z,4.03
2019-04-20T06:43:34.994Z,5.85
2019-04-20T06:46:03.378Z,6.20
2019-04-20T06:48:42.933Z,5.62
2019-04-20T06:50:58.128Z,6.62
2019-04-20T06:53:43.614Z,4.17
2019-04-20T06:56:15.629Z,5.62
2019-04-20T06:59:03.725Z,5.25
2019-04-20T07:01:23.581Z,6.85
2019-04-20T07:04:00.631Z,5.20
2019-04-20T07:06:35.360Z,3.80
2019-04-20T07:11:31.045Z,7.40
2019-04-20T07:13:48.170Z,5.03
2019-04-20T07:16:35.470Z,5.80
2019-04-20T07:19:10.675Z,5.58
2019-04-20T07:22:01.942Z,6.20
2019-04-20T07:24:28.806Z,8.25
2019-04-20T07:26:59.088Z,5.10
2019-04-20T07:29:26.984Z,7.03
2019-04-20T07:34:26.584Z,9.08
2019-04-20T07:37:21.675Z,9.83
2019-04-20T07:39:32.772Z,12.73
2019-04-20T07:42:00.702Z,5.12
2019-04-20T07:44:36.279Z,12.30
2019-04-20T07:47:07.658Z,6.78
2019-04-20T07:49:30.131Z,11.55
2019-04-20T07:51:47.074Z,10.98
2019-04-20T07:54:44.184Z,11.30
2019-04-20T07:57:04.022Z,15.15
2019-04-20T07:59:27.588Z,9.43
2019-04-20T08:02:17.239Z,10.50
2019-04-20T08:04:43.474Z,12.10
2019-04-20T08:06:59.140Z,16.90
2019-04-20T08:09:34.193Z,9.38
2019-04-20T08:12:19.494Z,9.90
2019-04-20T08:14:56.847Z,14.93
2019-04-20T08:17:32.240Z,15.15
2019-04-20T08:19:47.277Z,19.87
2019-04-20T08:22:21.470Z,14.03
2019-04-20T08:24:48.666Z,10.80
2019-04-20T08:27:06.462Z,9.05
2019-04-20T08:29:50.224Z,11.95
2019-04-20T08:32:34.562Z,8.70
2019-04-20T08:35:05.064Z,11.70
2019-04-20T08:37:41.368Z,11.88
2019-04-20T08:40:15.037Z,18.10
2019-04-20T08:42:52.628Z,13.13
2019-04-20T08:45:32.898Z,15.53
2019-04-20T08:47:50.285Z,20.90
2019-04-20T08:50:21.202Z,16.25
2019-04-20T08:55:16.647Z,13.90
2019-04-20T08:57:29.092Z,21.95
2019-04-20T09:00:01.473Z,13.30
2019-04-20T09:02:30.443Z,11.95
2019-04-20T09:05:08.593Z,16.35
2019-04-20T09:07:39.110Z,9.63
2019-04-20T09:10:28.233Z,12.88
2019-04-20T09:12:47.801Z,28.55
2019-04-20T09:15:06.212Z,18.23
2019-04-20T09:17:48.619Z,17.17
2019-04-20T09:20:17.430Z,13.93
2019-04-20T09:23:11.699Z,14.53
2019-04-20T09:28:18.694Z,15.80
2019-04-20T09:30:53.215Z,9.90
2019-04-20T09:33:52.780Z,15.48
2019-04-20T09:36:23.682Z,16.87
2019-04-20T09:39:07.796Z,12.55
2019-04-20T09:41:59.088Z,10.78
2019-04-20T09:44:13.393Z,15.28
2019-04-20T09:46:46.257Z,13.93
2019-04-20T09:49:20.084Z,9.53
2019-04-20T09:51:59.886Z,13.20
2019-04-20T09:54:32.660Z,9.95
2019-04-20T09:57:05.184Z,10.10
2019-04-20T09:59:33.172Z,10.65
2019-04-20T10:01:50.823Z,10.82
2019-04-20T10:04:15.765Z,10.80
2019-04-20T10:06:47.537Z,15.28
2019-04-20T10:09:20.421Z,14.45
2019-04-20T10:11:49.332Z,13.53
2019-04-20T10:14:20.532Z,9.83
2019-04-20T10:16:49.752Z,13.93
2019-04-20T10:19:26.026Z,9.95
2019-04-20T10:21:52.851Z,10.10
2019-04-20T10:24:21.872Z,11.38
2019-04-20T10:26:50.805Z,13.35
2019-04-20T10:29:21.658Z,8.38
2019-04-20T10:31:57.450Z,7.90
2019-04-20T10:34:24.156Z,11.28
2019-04-20T10:36:55.504Z,8.20
2019-04-20T10:39:28.673Z,9.23
2019-04-20T10:42:02.198Z,8.33
2019-04-20T10:44:29.973Z,9.95
2019-04-20T10:47:00.831Z,7.12
2019-04-20T10:49:31.095Z,17.50
2019-04-20T10:52:01.962Z,15.70
2019-04-20T10:56:59.492Z,10.38
2019-04-20T10:59:29.701Z,11.57
2019-04-20T11:01:59.983Z,11.75
2019-04-20T11:04:30.468Z,21.52
2019-04-20T11:07:00.728Z,23.20
2019-04-20T11:09:34.415Z,22.95
2019-04-20T11:12:04.192Z,15.45
2019-04-20T11:14:36.668Z,17.40
2019-04-20T11:17:06.285Z,17.82
2019-04-20T11:19:36.994Z,17.65
2019-04-20T11:22:08.277Z,19.23
2019-04-20T11:24:38.603Z,15.18
2019-04-20T11:27:07.897Z,14.28
2019-04-20T11:29:37.964Z,20.55
2019-04-20T11:32:09.291Z,9.50
2019-04-20T11:34:41.947Z,12.65
2019-04-20T11:37:11.344Z,13.35
2019-04-20T11:39:41.059Z,9.85
2019-04-20T11:42:11.788Z,12.63
2019-04-20T11:44:40.905Z,8.05
2019-04-20T11:47:10.465Z,8.58
2019-04-20T11:49:41.588Z,8.17
2019-04-20T11:52:09.811Z,8.98
2019-04-20T11:54:40.633Z,8.33
2019-04-20T11:59:43.247Z,10.10
2019-04-20T12:02:30.249Z,10.98
2019-04-20T12:05:10.231Z,8.13
2019-04-20T12:07:33.729Z,8.35
2019-04-20T12:10:09.074Z,7.35
2019-04-20T12:12:41.518Z,8.28
2019-04-20T12:15:04.391Z,10.45
2019-04-20T12:17:39.720Z,7.83
2019-04-20T12:20:08.485Z,5.97
2019-04-20T12:22:37.345Z,10.65
2019-04-20T12:25:07.947Z,8.65
2019-04-20T12:27:42.017Z,9.08
2019-04-20T12:30:11.988Z,6.72
2019-04-20T12:32:44.958Z,9.70
2019-04-20T12:35:12.085Z,10.28
2019-04-20T12:37:41.071Z,11.00
2019-04-20T12:40:14.220Z,4.80
2019-04-20T12:42:44.182Z,10.85
2019-04-20T12:45:15.658Z,7.23
2019-04-20T12:47:47.014Z,6.28
2019-04-20T12:50:14.807Z,5.22
2019-04-20T12:52:46.261Z,9.80
2019-04-20T12:55:16.582Z,6.42
2019-04-20T12:57:46.886Z,5.12
2019-04-20T13:00:17.473Z,6.30
2019-04-20T13:02:47.290Z,12.10
2019-04-20T13:05:17.484Z,9.35
2019-04-20T13:07:53.211Z,5.10
2019-04-20T13:10:27.530Z,7.03
2019-04-20T13:12:58.483Z,6.15
2019-04-20T13:15:48.506Z,8.58
2019-04-20T13:18:21.174Z,10.63
2019-04-20T13:20:50.133Z,7.72
2019-04-20T13:23:20.865Z,8.95
2019-04-20T13:25:52.935Z,6.30
2019-04-20T13:28:23.510Z,9.25
2019-04-20T13:30:53.945Z,7.37
2019-04-20T13:33:24.948Z,5.10
2019-04-20T13:35:56.410Z,11.73
2019-04-20T13:38:25.914Z,7.53
2019-04-20T13:40:57.741Z,6.65
2019-04-20T13:43:30.004Z,5.95
2019-04-20T13:46:01.189Z,5.12
2019-04-20T13:48:31.837Z,9.23
2019-04-20T13:51:02.316Z,7.05
2019-04-20T13:53:31.068Z,7.72
2019-04-20T13:56:01.382Z,11.93
2019-04-20T13:58:47.848Z,8.25
2019-04-20T14:01:22.945Z,6.55
2019-04-20T14:03:58.945Z,15.40
2019-04-20T14:06:27.673Z,12.85
2019-04-20T14:08:57.062Z,11.05
2019-04-20T14:11:27.170Z,10.85
2019-04-20T14:14:01.473Z,5.58
2019-04-20T14:16:29.433Z,7.55
2019-04-20T14:18:58.803Z,6.85
2019-04-20T14:21:27.967Z,7.92
2019-04-20T14:23:57.168Z,8.80
2019-04-20T14:26:27.167Z,11.70
2019-04-20T14:28:58.840Z,7.55
2019-04-20T14:31:28.405Z,7.28
2019-04-20T14:33:57.279Z,8.25
2019-04-20T14:36:28.697Z,7.22
2019-04-20T14:39:00.332Z,6.37
2019-04-20T14:41:30.641Z,7.45
2019-04-20T14:43:59.866Z,5.05
2019-04-20T14:46:29.541Z,5.60
2019-04-20T14:48:58.820Z,9.98
2019-04-20T14:51:28.085Z,10.10
2019-04-20T14:53:57.065Z,5.17
2019-04-20T14:56:27.813Z,10.18
2019-04-20T15:01:32.380Z,8.87
2019-04-20T15:04:09.081Z,7.40
2019-04-20T15:06:36.694Z,9.80
2019-04-20T15:09:14.687Z,7.53
2019-04-20T15:11:46.597Z,4.53
2019-04-20T15:14:16.485Z,8.70
2019-04-20T15:16:46.749Z,9.87
2019-04-20T15:19:21.176Z,6.95
2019-04-20T15:21:51.479Z,10.60
2019-04-20T15:24:21.813Z,21.90
2019-04-20T15:26:52.394Z,17.30
2019-04-20T15:29:22.208Z,18.30
2019-04-20T15:31:52.189Z,15.10
2019-04-20T15:34:21.240Z,10.95
2019-04-20T15:36:52.030Z,11.40
2019-04-20T15:41:49.965Z,15.00
2019-04-20T15:44:19.483Z,13.15
2019-04-20T15:46:48.828Z,11.03
2019-04-20T15:49:19.880Z,13.95
2019-04-20T15:51:50.013Z,13.32
2019-04-20T15:54:19.744Z,10.08
2019-04-20T15:56:56.872Z,7.95
2019-04-20T15:59:22.167Z,11.85
2019-04-20T16:01:53.403Z,10.70
2019-04-20T16:04:43.003Z,19.02
2019-04-20T16:07:12.978Z,16.82
2019-04-20T16:09:42.175Z,7.83
2019-04-20T16:12:12.929Z,9.03
2019-04-20T16:17:12.354Z,9.53
2019-04-20T16:19:54.251Z,9.80
2019-04-20T16:22:15.468Z,13.75
2019-04-20T16:24:55.723Z,7.62
2019-04-20T16:27:29.886Z,13.20
2019-04-20T16:29:59.906Z,9.73
2019-04-20T16:32:30.379Z,9.75
2019-04-20T16:35:02.731Z,14.75
2019-04-20T16:37:32.693Z,14.63
2019-04-20T16:40:04.145Z,8.50
2019-04-20T16:42:32.237Z,14.70
2019-04-20T16:45:01.227Z,11.33
2019-04-20T16:47:30.244Z,14.10
2019-04-20T16:49:59.425Z,11.60
2019-04-20T16:52:28.781Z,13.60
2019-04-20T16:54:59.658Z,12.60
2019-04-20T16:59:59.288Z,19.50
2019-04-20T17:02:27.786Z,25.92
2019-04-20T17:04:57.025Z,14.05
2019-04-20T17:07:28.751Z,21.60
2019-04-20T17:09:58.305Z,14.30
2019-04-20T17:12:28.087Z,12.45
2019-04-20T17:14:58.885Z,15.40
2019-04-20T17:17:31.504Z,16.27
2019-04-20T17:20:01.775Z,17.52
2019-04-20T17:22:32.025Z,16.12
2019-04-20T17:25:01.740Z,10.13
2019-04-20T17:27:49.117Z,13.85
2019-04-20T17:30:25.532Z,14.13
2019-04-20T17:33:04.196Z,8.30
2019-04-20T17:35:43.563Z,13.25
2019-04-20T17:40:51.075Z,8.63
2019-04-20T17:43:12.720Z,9.10
2019-04-20T17:45:47.472Z,10.30
2019-04-20T17:48:18.873Z,17.02
2019-04-20T17:50:55.665Z,16.95
2019-04-20T17:53:22.636Z,12.13
2019-04-20T17:55:53.467Z,13.95
2019-04-20T17:58:27.960Z,12.30
2019-04-20T18:01:08.664Z,13.88
2019-04-20T18:04:11.409Z,9.75
2019-04-20T18:06:30.360Z,7.58
2019-04-20T18:08:53.787Z,10.93
2019-04-20T18:11:15.011Z,12.07
2019-04-20T18:13:40.068Z,10.70
2019-04-20T18:16:39.441Z,12.10
2019-04-20T18:19:08.537Z,6.65
2019-04-20T18:21:35.158Z,9.20
2019-04-20T18:24:11.654Z,9.90
2019-04-20T18:26:51.934Z,8.63
2019-04-20T18:29:26.107Z,18.12
2019-04-20T18:31:39.989Z,13.30
2019-04-20T18:34:14.360Z,9.73
2019-04-20T18:36:44.127Z,20.85
2019-04-20T18:39:13.671Z,8.95
2019-04-20T18:41:48.067Z,11.08
2019-04-20T18:44:12.918Z,10.82
2019-04-20T18:47:06.354Z,14.65
2019-04-20T18:49:28.212Z,10.75
2019-04-20T18:51:43.838Z,12.65
2019-04-20T18:54:18.830Z,8.90
2019-04-20T18:56:47.378Z,14.18
2019-04-20T18:59:14.503Z,10.80
2019-04-20T19:01:45.467Z,10.55
2019-04-20T19:04:17.674Z,9.15
2019-04-20T19:06:47.868Z,8.78
2019-04-20T19:09:24.441Z,11.10
2019-04-20T19:11:57.211Z,6.95
2019-04-20T19:14:35.587Z,7.97
2019-04-20T19:17:16.162Z,11.03
2019-04-20T19:19:44.484Z,8.40
2019-04-20T19:22:10.200Z,11.50
2019-04-20T19:24:41.588Z,8.43
2019-04-20T19:27:14.921Z,6.05
2019-04-20T19:29:50.571Z,11.08
2019-04-20T19:32:30.002Z,13.72
2019-04-20T19:37:22.936Z,8.38
2019-04-20T19:40:01.988Z,6.47
2019-04-20T19:42:31.107Z,6.83
2019-04-20T19:45:01.440Z,8.08
2019-04-20T19:47:41.592Z,7.05
2019-04-20T19:50:20.713Z,6.42
2019-04-20T19:52:44.788Z,7.17
2019-04-20T19:55:06.964Z,4.85
2019-04-20T19:57:38.891Z,7.87
2019-04-20T19:59:56.739Z,5.33
2019-04-20T20:02:28.145Z,6.90
2019-04-20T20:05:06.331Z,8.55
2019-04-20T20:07:37.693Z,7.30
2019-04-20T20:15:12.179Z,7.72
2019-04-20T20:17:54.278Z,6.90
2019-04-20T20:20:33.160Z,6.75
2019-04-20T20:22:45.369Z,6.80
2019-04-20T20:25:12.731Z,8.53
2019-04-20T20:27:51.231Z,4.47
2019-04-20T20:30:24.465Z,4.53
2019-04-20T20:33:07.052Z,6.55
2019-04-20T20:35:30.843Z,5.95
2019-04-20T20:38:16.097Z,6.42
2019-04-20T20:40:38.478Z,5.65
2019-04-20T20:43:18.162Z,8.68
2019-04-20T20:45:56.434Z,5.83
2019-04-20T20:48:29.797Z,8.18
2019-04-20T20:51:09.203Z,5.05
2019-04-20T20:53:38.718Z,4.92
2019-04-20T20:56:13.362Z,8.63
2019-04-20T20:58:48.569Z,5.78
2019-04-20T21:01:19.645Z,6.42
2019-04-20T21:03:46.609Z,7.45
2019-04-20T21:06:18.686Z,5.33
2019-04-20T21:08:52.370Z,6.20
2019-04-20T21:11:27.512Z,5.15
2019-04-20T21:13:54.564Z,5.42
2019-04-20T21:16:31.420Z,4.90
2019-04-20T21:19:15.894Z,5.45
2019-04-20T21:21:42.183Z,4.62
2019-04-20T21:24:12.254Z,6.00
2019-04-20T21:26:42.166Z,6.42
2019-04-20T21:29:10.405Z,7.90
2019-04-20T21:31:43.375Z,5.87
2019-04-20T21:36:43.067Z,10.90
2019-04-20T21:39:20.301Z,6.92
2019-04-20T21:44:21.812Z,6.37
2019-04-20T21:49:32.141Z,7.37
2019-04-20T21:51:54.572Z,6.72
2019-04-20T21:54:18.223Z,5.62
2019-04-20T21:56:53.789Z,5.25
2019-04-20T21:59:28.031Z,4.60
2019-04-20T22:01:58.461Z,7.47
2019-04-20T22:04:25.534Z,3.65
2019-04-20T22:06:54.605Z,7.15
2019-04-20T22:09:32.270Z,4.42
2019-04-20T22:11:58.111Z,5.75
2019-04-20T22:14:32.222Z,3.85
2019-04-20T22:17:01.837Z,6.60
2019-04-20T22:19:43.355Z,6.08
2019-04-20T22:22:18.321Z,4.95
2019-04-20T22:24:53.927Z,5.25
2019-04-20T22:27:15.969Z,5.97
2019-04-20T22:29:41.823Z,5.58
2019-04-20T22:34:41.768Z,4.05
2019-04-20T22:37:17.840Z,5.28
2019-04-20T22:39:52.367Z,5.50
2019-04-20T22:42:20.455Z,5.35
2019-04-20T22:44:56.674Z,7.65
2019-04-20T22:47:28.766Z,6.10
2019-04-20T22:50:15.190Z,4.65
2019-04-20T22:52:42.930Z,8.08
2019-04-20T22:55:30.715Z,4.35
2019-04-20T22:57:48.628Z,4.62
2019-04-20T23:00:10.273Z,4.97
2019-04-20T23:02:34.126Z,6.55
2019-04-20T23:05:04.946Z,5.70
2019-04-20T23:10:07.175Z,5.03
2019-04-20T23:12:35.794Z,4.10
2019-04-20T23:15:10.394Z,5.55
2019-04-20T23:17:44.159Z,5.58
2019-04-20T23:20:19.487Z,4.58
2019-04-20T23:22:46.142Z,4.37
2019-04-20T23:25:17.445Z,7.08
2019-04-20T23:27:57.575Z,4.35
2019-04-20T23:30:29.022Z,4.90
2019-04-20T23:32:55.940Z,4.08
2019-04-20T23:35:26.677Z,5.15
2019-04-20T23:38:01.605Z,6.05
2019-04-20T23:40:27.785Z,5.22
2019-04-20T23:42:58.365Z,4.00
2019-04-20T23:45:35.469Z,4.72
2019-04-20T23:48:14.170Z,5.50
2019-04-20T23:50:58.192Z,4.00
2019-04-20T23:53:33.850Z,4.50
2019-04-20T23:55:47.823Z,7.47
2019-04-20T23:58:18.150Z,3.65
